KESF

Esler Regional Airport

Alexandria, Louisiana, USA
METAR KESF 162353Z AUTO 00000KT 10SM SCT100 08/03 A3015 RMK AO2 SLP209 T00830028 10150 20083 53000
Observed Flight Rules
Dec-16 @ 23:53 UTC (19 minutes ago) Visual Flight Rules
Wind Visibility Clouds
Calm 10 miles
  • Scattered at 10,000' AGL
Temperatures Readings
Current 8°C / 46°F
Dewpoint 3°C / 37°F
Humidity 71%
Altimeter 30.15" Hg
Pressure 1020.9 hPa
Elevation 28
METAR KESF 162353Z AUTO 00000KT 10SM SCT100 08/03 A3015 RMK AO2 SLP209 T00830028 10150 20083 53000
Observed Flight Rules
Dec-16 @ 23:53 UTC
(19 minutes ago)
VFR
Wind Visibility
Calm 10 miles
Clouds
  • Scattered at 10,000' AGL
Temperature Dewpoint
8°C / 46°F 3°C / 37°F
Humidity Altimeter Pressure
71% 30.15" Hg 1020.9 hPa